Time;durP1;ratioP1;P1;durP2;ratioP2;P2;SDS_P1;SDS_P2;PMS_P1;PMS_P2;Temp;Humidity;BMP_temperature;BMP_pressure;BME280_temperature;BME280_humidity;BME280_pressure;Samples;Min_cycle;Max_cycle;Signal;HPM_P1;HPM_P2
2022/06/07 00:01:37;;;;;;;;;0.00;0.00;;;;;20.78;45.73;101306.47;5065680;28;46120;-48
2022/06/07 00:04:04;;;;;;;;;1.67;1.00;;;;;20.80;46.17;101296.38;5058316;28;45759;-49
2022/06/07 00:06:29;;;;;;;;;1.00;1.00;;;;;20.81;45.74;101303.50;5064493;28;45763;-48
2022/06/07 00:08:55;;;;;;;;;1.00;1.00;;;;;20.77;46.11;101300.22;5062133;28;45507;-48
2022/06/07 00:11:21;;;;;;;;;1.00;1.00;;;;;20.73;46.85;101300.59;5059043;28;47107;-50
2022/06/07 00:13:47;;;;;;;;;2.00;1.00;;;;;20.66;46.10;101294.81;5061035;28;68918;-47
2022/06/07 00:16:13;;;;;;;;;1.00;1.00;;;;;20.62;46.94;101287.97;5065372;28;45345;-49
2022/06/07 00:18:38;;;;;;;;;1.00;1.00;;;;;20.61;46.37;101297.06;5072830;28;45411;-47
2022/06/07 00:21:04;;;;;;;;;1.00;1.00;;;;;20.54;47.56;101293.19;5063900;28;70327;-47
2022/06/07 00:23:30;;;;;;;;;1.00;1.00;;;;;20.44;47.69;101293.97;5072525;28;45573;-48
2022/06/07 00:25:56;;;;;;;;;2.33;1.00;;;;;20.40;47.37;101288.94;5059836;28;45778;-48
2022/06/07 00:28:21;;;;;;;;;1.00;1.00;;;;;20.38;47.43;101288.22;5064446;28;53808;-52
2022/06/07 00:30:47;;;;;;;;;1.00;1.00;;;;;20.36;48.27;101282.06;5046174;28;71341;-49
2022/06/07 00:33:13;;;;;;;;;1.00;1.00;;;;;20.31;48.79;101277.91;5059211;28;69744;-48
2022/06/07 00:35:39;;;;;;;;;2.33;1.00;;;;;20.31;47.76;101277.91;5041808;28;45367;-50
2022/06/07 00:38:05;;;;;;;;;0.00;0.00;;;;;20.34;48.22;101271.41;5068833;28;45478;-48
2022/06/07 00:40:31;;;;;;;;;0.67;0.67;;;;;20.40;48.42;101278.13;5058427;28;46089;-47
2022/06/07 00:42:56;;;;;;;;;1.00;1.00;;;;;20.42;48.57;101270.75;5057896;28;45343;-48
2022/06/07 00:45:22;;;;;;;;;1.00;1.00;;;;;20.42;49.08;101258.09;5071208;28;45355;-49
2022/06/07 00:47:48;;;;;;;;;0.00;0.00;;;;;20.38;48.69;101253.94;5064626;28;45462;-48
2022/06/07 00:50:27;;;;;;;;;0.00;0.00;;;;;20.38;49.04;101258.50;5058943;28;45285;-48
2022/06/07 00:52:52;;;;;;;;;0.00;0.00;;;;;20.33;48.96;101248.91;5058851;28;45782;-49
2022/06/07 00:55:18;;;;;;;;;1.33;0.00;;;;;20.29;49.36;101246.63;5059752;28;45362;-48
2022/06/07 00:57:44;;;;;;;;;0.33;0.33;;;;;20.26;49.10;101244.16;5068681;28;62895;-48
2022/06/07 01:00:12;;;;;;;;;0.00;0.00;;;;;20.22;49.26;101240.88;5063524;28;47034;-47
2022/06/07 01:02:37;;;;;;;;;1.00;1.00;;;;;20.23;50.02;101239.03;5040460;28;45284;-50
2022/06/07 01:05:03;;;;;;;;;1.33;1.00;;;;;20.18;49.53;101242.13;5058257;28;47862;-48
2022/06/07 01:12:56;;;;;;;;;1.00;0.67;;;;;20.05;50.08;101241.44;5058183;28;45377;-48
2022/06/07 01:15:21;;;;;;;;;0.00;0.00;;;;;20.03;50.97;101238.88;5058198;28;63186;-49
2022/06/07 01:17:47;;;;;;;;;1.00;1.00;;;;;20.05;50.32;101242.31;5057058;28;64995;-49
2022/06/07 01:20:13;;;;;;;;;2.00;2.00;;;;;20.08;50.28;101239.34;5068678;28;48726;-47
2022/06/07 01:22:38;;;;;;;;;1.33;0.00;;;;;20.11;50.30;101239.06;5058122;28;45278;-49
2022/06/07 01:25:05;;;;;;;;;0.00;0.00;;;;;20.15;50.74;101232.44;5058757;28;45162;-48
2022/06/07 01:27:30;;;;;;;;;0.00;0.00;;;;;20.15;50.59;101218.94;5058206;28;45569;-48
2022/06/07 01:29:56;;;;;;;;;0.00;0.00;;;;;20.17;50.61;101216.97;5071762;28;54333;-49
2022/06/07 01:32:21;;;;;;;;;1.00;1.00;;;;;20.14;50.79;101214.53;5060748;28;70572;-48
2022/06/07 01:34:47;;;;;;;;;0.67;0.67;;;;;20.11;50.46;101220.16;5058576;28;45537;-49
2022/06/07 01:37:15;;;;;;;;;1.00;1.00;;;;;20.03;51.35;101219.97;5069368;28;45457;-48
2022/06/07 01:42:24;;;;;;;;;0.33;0.33;;;;;19.99;50.93;101222.06;5055634;28;45280;-48
2022/06/07 01:44:51;;;;;;;;;1.33;0.67;;;;;20.05;51.20;101217.13;5058042;28;52614;-51
2022/06/07 01:47:22;;;;;;;;;1.00;1.00;;;;;20.02;51.11;101217.41;5056771;28;45410;-50
2022/06/07 01:49:48;;;;;;;;;0.67;0.67;;;;;19.97;51.59;101218.66;5062046;28;46096;-48
2022/06/07 01:52:15;;;;;;;;;1.00;1.00;;;;;19.94;51.91;101216.19;5058435;28;45340;-48
2022/06/07 01:54:41;;;;;;;;;0.33;0.33;;;;;19.97;51.50;101217.78;5058586;28;45307;-48
2022/06/07 01:57:07;;;;;;;;;0.33;0.33;;;;;20.00;51.31;101214.84;5056081;28;67562;-49
2022/06/07 01:59:34;;;;;;;;;1.00;1.00;;;;;20.06;51.40;101218.84;5058227;28;46504;-50
2022/06/07 02:01:59;;;;;;;;;1.00;1.00;;;;;20.10;51.20;101217.59;5067448;28;45507;-48
2022/06/07 02:04:25;;;;;;;;;0.33;0.33;;;;;20.13;50.82;101206.56;5066273;28;45486;-48
2022/06/07 02:06:50;;;;;;;;;0.00;0.00;;;;;20.16;51.33;101206.28;5065367;28;55387;-48
2022/06/07 02:09:17;;;;;;;;;1.00;1.00;;;;;20.19;51.30;101211.41;5058688;28;45756;-48
2022/06/07 02:11:42;;;;;;;;;1.00;1.00;;;;;20.24;51.27;101209.19;5061162;28;45446;-51
2022/06/07 02:14:08;;;;;;;;;2.00;1.00;;;;;20.22;51.10;101202.22;5075466;28;59708;-49
2022/06/07 02:16:34;;;;;;;;;0.33;0.33;;;;;20.14;51.61;101202.84;5060846;28;45580;-49
2022/06/07 02:18:59;;;;;;;;;1.00;1.00;;;;;20.10;51.39;101199.56;5057674;28;45375;-48
2022/06/07 02:21:25;;;;;;;;;1.33;1.00;;;;;20.11;51.66;101201.25;5057417;28;45417;-49
2022/06/07 02:23:50;;;;;;;;;1.00;1.00;;;;;20.12;51.15;101197.59;5058120;28;45467;-49
2022/06/07 02:26:18;;;;;;;;;1.00;1.00;;;;;20.08;51.43;101188.03;5059005;28;45410;-50
2022/06/07 02:28:48;;;;;;;;;1.33;1.33;;;;;20.07;51.37;101186.31;5048858;28;46324;-48
2022/06/07 02:31:14;;;;;;;;;1.00;1.00;;;;;20.06;51.64;101184.59;5040716;28;45344;-50
2022/06/07 02:33:40;;;;;;;;;1.00;1.00;;;;;20.06;51.68;101181.91;5063550;28;60092;-49
2022/06/07 02:36:07;;;;;;;;;1.00;1.00;;;;;20.06;51.69;101176.50;5060487;28;45365;-49
2022/06/07 02:38:33;;;;;;;;;1.00;1.00;;;;;20.08;51.84;101177.22;5061970;28;46360;-48
2022/06/07 02:40:58;;;;;;;;;1.00;1.00;;;;;20.07;51.79;101169.28;5042696;28;45414;-49
2022/06/07 02:43:23;;;;;;;;;1.00;1.00;;;;;20.06;52.01;101176.50;5060127;28;50176;-51
2022/06/07 02:45:49;;;;;;;;;1.00;1.00;;;;;20.05;52.54;101179.34;5072783;28;58892;-48
2022/06/07 02:48:14;;;;;;;;;1.00;1.00;;;;;19.99;51.73;101167.22;5073284;28;73522;-48
2022/06/07 02:50:40;;;;;;;;;1.00;1.00;;;;;19.92;51.64;101169.59;5062200;28;45249;-48
2022/06/07 02:53:05;;;;;;;;;1.00;1.00;;;;;19.84;52.24;101161.25;5068070;28;45497;-49
2022/06/07 02:55:31;;;;;;;;;1.00;1.00;;;;;19.79;52.61;101160.75;5060366;28;45329;-49
2022/06/07 02:57:58;;;;;;;;;1.00;1.00;;;;;19.73;52.48;101166.69;5061177;28;45422;-51
2022/06/07 03:00:23;;;;;;;;;1.00;1.00;;;;;19.67;52.79;101159.94;5060485;28;45355;-49
2022/06/07 03:02:48;;;;;;;;;0.00;0.00;;;;;19.54;53.32;101157.38;5065016;28;45553;-49
2022/06/07 03:05:14;;;;;;;;;0.67;0.67;;;;;19.49;54.56;101151.53;5062526;28;45442;-50
2022/06/07 03:07:41;;;;;;;;;1.00;1.00;;;;;19.44;53.57;101148.38;5063422;28;46140;-49
2022/06/07 03:10:08;;;;;;;;;1.00;1.00;;;;;19.44;53.91;101151.91;5059590;28;45501;-50
2022/06/07 03:12:34;;;;;;;;;1.00;1.00;;;;;19.42;53.75;101147.63;5070218;28;45543;-52
2022/06/07 03:14:59;;;;;;;;;1.33;1.33;;;;;19.38;54.11;101144.31;5064333;28;45432;-48
2022/06/07 03:17:25;;;;;;;;;1.33;1.00;;;;;19.38;54.28;101154.25;5068734;28;46307;-49
2022/06/07 03:19:51;;;;;;;;;1.00;1.00;;;;;19.37;53.88;101153.38;5060892;28;45411;-50
2022/06/07 03:22:17;;;;;;;;;1.00;1.00;;;;;19.43;54.58;101150.19;5061326;28;45451;-49
2022/06/07 03:24:43;;;;;;;;;1.67;1.00;;;;;19.49;54.80;101154.25;5060144;28;45319;-48
2022/06/07 03:27:08;;;;;;;;;2.33;1.00;;;;;19.44;54.41;101156.47;5060009;28;67946;-48
2022/06/07 03:29:33;;;;;;;;;1.00;1.00;;;;;19.41;54.45;101152.16;5060563;28;46783;-49
2022/06/07 03:31:59;;;;;;;;;1.00;1.00;;;;;19.40;54.32;101154.97;5062840;28;55955;-48
2022/06/07 03:34:25;;;;;;;;;1.33;1.33;;;;;19.44;54.37;101154.59;5064652;27;45355;-49
2022/06/07 03:36:50;;;;;;;;;2.00;2.00;;;;;19.42;54.93;101147.63;5059831;28;46004;-50
2022/06/07 03:39:15;;;;;;;;;2.00;0.00;;;;;19.37;54.75;101147.13;5070299;28;45216;-48
2022/06/07 03:41:41;;;;;;;;;2.00;2.00;;;;;19.36;54.84;101156.19;5059343;28;62521;-47
2022/06/07 03:44:06;;;;;;;;;2.33;2.33;;;;;19.28;54.59;101151.44;5056413;28;64203;-48
2022/06/07 03:46:33;;;;;;;;;2.33;2.33;;;;;19.18;55.37;101164.81;5060387;28;46236;-51
2022/06/07 03:48:59;;;;;;;;;2.00;1.00;;;;;19.19;55.17;101155.75;5062662;28;45398;-49
2022/06/07 03:51:26;;;;;;;;;1.33;1.33;;;;;19.19;55.62;101155.75;5061477;28;45329;-49
2022/06/07 03:53:52;;;;;;;;;2.00;2.00;;;;;19.18;55.56;101156.72;5057493;28;45549;-49
2022/06/07 03:56:18;;;;;;;;;2.00;2.00;;;;;19.20;55.43;101162.84;5059494;28;46042;-49
2022/06/07 03:58:43;;;;;;;;;1.00;1.00;;;;;19.21;55.96;101150.25;5057920;28;45291;-48
2022/06/07 04:01:17;;;;;;;;;1.33;1.33;;;;;19.23;56.51;101159.91;5059010;28;45247;-49
2022/06/07 04:03:44;;;;;;;;;1.00;1.00;;;;;19.22;55.38;101155.50;5052817;28;45433;-49
2022/06/07 04:06:25;;;;;;;;;1.00;1.00;;;;;19.19;56.44;101161.16;5063565;28;46337;-49
2022/06/07 04:08:50;;;;;;;;;4.00;2.00;;;;;19.14;57.18;101157.97;5056528;28;45431;-49
2022/06/07 04:11:20;;;;;;;;;1.33;1.33;;;;;19.08;56.29;101161.16;5059978;28;48098;-52
2022/06/07 04:13:45;;;;;;;;;2.00;2.00;;;;;19.12;56.12;101158.06;5059649;28;45369;-50
2022/06/07 04:16:13;;;;;;;;;2.00;2.00;;;;;19.11;56.63;101148.28;5059821;28;46204;-49
2022/06/07 04:18:40;;;;;;;;;2.00;2.00;;;;;19.07;56.76;101148.66;5067925;28;45316;-49
2022/06/07 04:21:06;;;;;;;;;1.00;1.00;;;;;18.96;57.92;101155.75;5060202;28;45328;-49
2022/06/07 04:23:31;;;;;;;;;1.00;1.00;;;;;18.89;57.33;101154.53;5064944;28;45409;-49
2022/06/07 04:25:57;;;;;;;;;3.00;1.00;;;;;18.84;58.40;101159.41;5061101;28;67424;-49
2022/06/07 04:28:22;;;;;;;;;4.00;3.00;;;;;18.75;60.24;101152.91;5063063;28;45395;-49
2022/06/07 04:30:49;;;;;;;;;1.00;1.00;;;;;18.75;59.43;101155.59;5057469;28;66648;-50
2022/06/07 04:33:15;;;;;;;;;1.00;1.00;;;;;18.76;60.60;101156.44;5059947;28;45860;-50
2022/06/07 04:35:42;;;;;;;;;5.00;2.00;;;;;18.71;59.94;101150.56;5071678;28;45893;-48
2022/06/07 04:38:08;;;;;;;;;1.00;1.00;;;;;18.64;60.37;101152.88;5075744;28;45283;-49
2022/06/07 04:40:34;;;;;;;;;1.33;0.00;;;;;18.63;60.82;101151.16;5064633;28;45219;-48
2022/06/07 04:42:59;;;;;;;;;2.00;2.00;;;;;18.58;61.84;101154.22;5058387;28;45627;-48
2022/06/07 04:45:25;;;;;;;;;1.67;1.67;;;;;18.55;62.26;101153.59;5059424;28;46260;-49
2022/06/07 04:47:50;;;;;;;;;1.33;1.33;;;;;18.55;61.95;101151.78;5059597;28;45294;-52
2022/06/07 04:50:17;;;;;;;;;1.00;1.00;;;;;18.59;62.52;101153.25;5059523;28;45395;-48
2022/06/07 04:52:44;;;;;;;;;1.00;1.00;;;;;18.67;62.20;101153.50;5043522;28;45665;-51
2022/06/07 04:55:11;;;;;;;;;1.00;1.00;;;;;18.70;63.15;101146.19;5057160;28;46247;-50
2022/06/07 04:57:36;;;;;;;;;1.33;1.33;;;;;18.62;62.79;101155.72;5058815;28;45217;-52
2022/06/07 05:00:03;;;;;;;;;1.67;0.67;;;;;18.57;64.02;101151.66;5070573;28;45627;-51
2022/06/07 05:02:29;;;;;;;;;1.00;1.00;;;;;18.54;62.96;101151.88;5049185;28;45870;-49
2022/06/07 05:04:54;;;;;;;;;1.00;1.00;;;;;18.59;63.17;101155.09;5063468;28;46400;-48
2022/06/07 05:07:19;;;;;;;;;1.00;1.00;;;;;18.67;63.19;101150.81;5065760;28;45399;-50
2022/06/07 05:09:47;;;;;;;;;1.00;1.00;;;;;18.65;63.39;101155.44;5065111;28;59381;-48
2022/06/07 05:12:12;;;;;;;;;1.00;1.00;;;;;18.70;62.99;101151.56;5059523;28;45407;-47
2022/06/07 05:14:38;;;;;;;;;1.00;1.00;;;;;18.70;63.31;101154.25;5071653;28;71370;-48
2022/06/07 05:17:03;;;;;;;;;1.00;1.00;;;;;18.68;63.09;101149.84;5058965;28;45470;-48
2022/06/07 05:19:34;;;;;;;;;0.33;0.33;;;;;18.71;63.54;101150.56;5057932;28;66190;-49
2022/06/07 05:22:01;;;;;;;;;1.00;1.00;;;;;18.73;63.22;101152.16;5047014;28;45390;-51
2022/06/07 05:24:26;;;;;;;;;2.00;2.00;;;;;18.80;63.60;101152.56;5058028;28;47331;-52
2022/06/07 05:26:54;;;;;;;;;1.00;1.00;;;;;18.84;63.10;101148.63;5045111;28;45431;-48
2022/06/07 05:29:26;;;;;;;;;2.00;2.00;;;;;18.92;62.72;101156.13;5044162;28;45498;-48
2022/06/07 05:31:51;;;;;;;;;1.00;1.00;;;;;18.98;63.05;101150.25;5058431;28;45458;-48
2022/06/07 05:34:17;;;;;;;;;1.33;1.33;;;;;19.01;62.86;101152.69;5058382;28;55858;-49
2022/06/07 05:36:43;;;;;;;;;1.67;1.67;;;;;19.01;62.46;101153.56;5058365;28;45319;-48
2022/06/07 05:39:28;;;;;;;;;0.67;0.67;;;;;19.04;62.42;101155.16;5058550;28;45374;-48
2022/06/07 05:41:54;;;;;;;;;2.33;1.00;;;;;19.06;62.15;101155.88;5046136;28;45387;-47
2022/06/07 05:44:21;;;;;;;;;2.00;0.67;;;;;19.08;62.55;101153.06;5043949;28;45461;-48
2022/06/07 05:46:47;;;;;;;;;1.33;1.33;;;;;19.14;62.43;101155.28;5049179;28;45331;-49
2022/06/07 05:49:13;;;;;;;;;1.00;1.00;;;;;19.20;62.65;101160.16;5058208;28;45171;-53
2022/06/07 05:51:38;;;;;;;;;1.33;1.33;;;;;19.21;62.33;101161.88;5057704;28;45680;-49
2022/06/07 05:54:05;;;;;;;;;2.00;1.00;;;;;19.16;62.21;101167.66;5058266;28;45284;-52
2022/06/07 05:56:31;;;;;;;;;1.00;1.00;;;;;19.10;62.02;101164.56;5058560;28;45438;-48
2022/06/07 05:58:57;;;;;;;;;0.33;0.33;;;;;19.09;62.46;101162.88;5052883;28;67625;-49
2022/06/07 06:01:22;;;;;;;;;1.00;1.00;;;;;19.07;62.38;101175.59;5058799;28;45411;-49
2022/06/07 06:03:48;;;;;;;;;2.00;1.00;;;;;19.00;63.21;101169.84;5058034;28;45973;-50
2022/06/07 06:06:13;;;;;;;;;0.00;0.00;;;;;18.93;63.26;101176.69;5067728;28;45430;-51
2022/06/07 06:11:26;;;;;;;;;2.00;2.00;;;;;18.95;63.39;101174.75;5059919;28;45399;-51
2022/06/07 06:13:51;;;;;;;;;1.00;1.00;;;;;18.97;63.34;101173.66;5059277;28;45462;-51
2022/06/07 06:16:19;;;;;;;;;0.00;0.00;;;;;18.98;62.81;101172.69;5057596;28;69598;-52
2022/06/07 06:18:45;;;;;;;;;1.00;1.00;;;;;18.99;62.83;101171.69;5043579;28;45339;-50
2022/06/07 06:21:10;;;;;;;;;2.00;1.00;;;;;19.04;62.79;101170.47;5040703;28;45344;-52
2022/06/07 06:23:36;;;;;;;;;0.33;0.33;;;;;19.08;62.81;101174.63;5048373;28;46330;-52
2022/06/07 06:26:07;;;;;;;;;1.67;1.00;;;;;19.13;62.81;101175.97;5057147;28;72734;-49
2022/06/07 06:28:32;;;;;;;;;4.67;3.00;;;;;19.22;62.40;101168.97;5053476;28;45301;-49
2022/06/07 06:31:01;;;;;;;;;1.00;1.00;;;;;19.30;62.55;101177.28;5061017;28;45538;-48
2022/06/07 06:33:26;;;;;;;;;0.67;0.67;;;;;19.36;62.33;101180.47;5046091;28;46356;-48
2022/06/07 06:35:54;;;;;;;;;1.00;1.00;;;;;19.39;61.84;101186.50;5053688;28;71134;-49
2022/06/07 06:38:21;;;;;;;;;1.00;1.00;;;;;19.44;62.84;101188.81;5045102;28;45457;-48
2022/06/07 06:40:46;;;;;;;;;1.67;0.67;;;;;19.43;62.15;101190.66;5049833;28;45557;-52
2022/06/07 06:43:13;;;;;;;;;1.00;1.00;;;;;19.41;62.09;101191.75;5046197;28;46140;-50
2022/06/07 06:45:39;;;;;;;;;0.00;0.00;;;;;19.39;62.02;101197.28;5042584;28;45219;-51
2022/06/07 06:48:06;;;;;;;;;0.33;0.33;;;;;19.33;61.96;101186.97;5052754;28;45450;-52
2022/06/07 06:50:32;;;;;;;;;3.67;1.00;;;;;19.28;62.23;101189.19;5051056;28;45503;-52
2022/06/07 06:52:57;;;;;;;;;0.33;0.33;;;;;19.31;62.46;101195.19;5057569;28;46038;-50
2022/06/07 06:55:22;;;;;;;;;2.00;0.00;;;;;19.33;62.19;101201.34;5056967;28;67308;-48
2022/06/07 06:57:49;;;;;;;;;0.33;0.33;;;;;19.34;62.11;101199.47;5064550;28;63345;-48
2022/06/07 07:00:15;;;;;;;;;1.00;1.00;;;;;19.38;61.97;101202.81;5060554;28;45399;-48
2022/06/07 07:02:40;;;;;;;;;1.00;1.00;;;;;19.37;61.65;101196.53;5063091;28;46150;-50
2022/06/07 07:05:06;;;;;;;;;0.00;0.00;;;;;19.41;61.61;101207.94;5061887;28;67218;-49
2022/06/07 07:07:31;;;;;;;;;0.75;0.00;;;;;19.43;61.57;101205.97;5057078;28;45435;-51
2022/06/07 07:09:57;;;;;;;;;1.00;1.00;;;;;19.41;61.58;101207.94;5050656;28;45388;-50
2022/06/07 07:12:22;;;;;;;;;0.00;0.00;;;;;19.40;61.31;101208.91;5062204;28;46346;-48
2022/06/07 07:14:48;;;;;;;;;1.00;1.00;;;;;19.39;61.02;101205.38;5051722;28;45300;-49
2022/06/07 07:17:14;;;;;;;;;1.00;1.00;;;;;19.40;60.92;101209.78;5040493;28;45686;-49
2022/06/07 07:19:39;;;;;;;;;1.00;1.00;;;;;19.43;61.25;101219.47;5045732;28;45286;-49
2022/06/07 07:22:05;;;;;;;;;0.00;0.00;;;;;19.44;61.23;101216.63;5072776;28;73003;-50
2022/06/07 07:24:30;;;;;;;;;0.00;0.00;;;;;19.49;60.81;101217.13;5051495;28;67788;-53
2022/06/07 07:26:55;;;;;;;;;0.25;0.25;;;;;19.53;60.56;101211.47;5065625;28;45818;-50
2022/06/07 07:29:22;;;;;;;;;1.00;1.00;;;;;19.49;60.56;101214.44;5069217;28;45510;-50
2022/06/07 07:31:47;;;;;;;;;0.00;0.00;;;;;19.48;60.16;101214.56;5061666;28;46074;-48
2022/06/07 07:34:14;;;;;;;;;1.33;0.00;;;;;19.45;59.93;101217.47;5055733;28;45544;-48
2022/06/07 07:36:48;;;;;;;;;0.00;0.00;;;;;19.51;59.78;101225.94;5047253;28;45453;-48
2022/06/07 07:39:14;;;;;;;;;0.00;0.00;;;;;19.62;60.07;101208.00;5056140;28;45328;-53
2022/06/07 07:41:41;;;;;;;;;1.33;0.33;;;;;19.79;59.83;101212.91;5047791;28;45686;-50
2022/06/07 07:44:11;;;;;;;;;0.00;0.00;;;;;19.92;58.49;101215.47;5058883;28;45326;-52
2022/06/07 07:46:38;;;;;;;;;0.00;0.00;;;;;20.08;58.70;101225.00;5050907;28;45543;-54
2022/06/07 07:49:04;;;;;;;;;0.00;0.00;;;;;20.32;58.31;101220.22;5043802;28;45590;-53
2022/06/07 07:51:36;;;;;;;;;0.00;0.00;;;;;20.54;58.31;101214.81;5060972;28;46164;-53
2022/06/07 07:54:04;;;;;;;;;0.00;0.00;;;;;20.70;57.47;101215.22;5047905;28;45324;-52
2022/06/07 07:56:30;;;;;;;;;9.00;7.67;;;;;20.77;57.79;101221.81;5063703;28;45277;-52
2022/06/07 07:58:56;;;;;;;;;2.00;0.00;;;;;20.86;56.94;101220.19;5049094;28;45417;-50
2022/06/07 08:01:24;;;;;;;;;2.00;0.00;;;;;20.95;56.44;101221.19;5060385;28;45307;-51
2022/06/07 08:03:51;;;;;;;;;2.00;0.00;;;;;21.03;56.57;101216.00;5058661;28;45534;-48
2022/06/07 08:06:18;;;;;;;;;0.00;0.00;;;;;21.10;56.27;101221.72;5073155;28;45389;-53
2022/06/07 08:08:45;;;;;;;;;1.50;0.00;;;;;21.11;55.71;101220.72;5069066;28;45554;-53
2022/06/07 08:11:12;;;;;;;;;0.50;0.50;;;;;21.16;55.64;101213.06;5052086;28;46197;-48
2022/06/07 08:13:37;;;;;;;;;0.00;0.00;;;;;21.22;55.76;101223.31;5042263;28;45651;-49
2022/06/07 08:16:05;;;;;;;;;0.00;0.00;;;;;21.29;55.06;101216.38;5064871;28;45500;-48
2022/06/07 08:18:30;;;;;;;;;0.00;0.00;;;;;21.36;54.60;101218.56;5061930;28;45667;-49
2022/06/07 08:20:57;;;;;;;;;3.75;0.75;;;;;21.44;54.49;101221.41;5057855;28;45451;-54
2022/06/07 08:23:23;;;;;;;;;1.00;1.00;;;;;21.51;54.33;101224.41;5063920;28;45770;-52
2022/06/07 08:25:48;;;;;;;;;1.00;1.00;;;;;21.56;54.47;101216.78;5050926;28;45691;-49
2022/06/07 08:28:14;;;;;;;;;1.75;0.00;;;;;21.65;54.28;101215.94;5048013;28;67577;-53
2022/06/07 08:30:44;;;;;;;;;3.75;1.75;;;;;21.83;53.99;101215.28;5050814;28;45781;-52
2022/06/07 08:38:38;;;;;;;;;1.00;1.00;;;;;22.39;52.75;101216.47;5061183;28;45311;-52
2022/06/07 08:41:05;;;;;;;;;1.00;1.00;;;;;22.44;52.54;101222.31;5056961;28;74681;-50
2022/06/07 08:43:30;;;;;;;;;1.00;1.00;;;;;22.41;52.30;101214.44;5059870;28;45425;-52
2022/06/07 08:45:57;;;;;;;;;0.00;0.00;;;;;22.40;52.43;101215.47;5063596;28;45358;-53
2022/06/07 08:48:28;;;;;;;;;1.25;1.25;;;;;22.39;51.96;101216.47;5051183;28;45387;-54
2022/06/07 08:51:15;;;;;;;;;4.00;1.00;;;;;22.43;51.83;101204.31;5057640;28;47026;-52
2022/06/07 08:53:44;;;;;;;;;1.00;1.00;;;;;22.49;52.35;101209.19;5044342;28;45479;-52
2022/06/07 08:56:15;;;;;;;;;1.00;1.00;;;;;22.47;51.91;101208.44;5061244;28;45344;-50
2022/06/07 08:58:43;;;;;;;;;1.00;1.00;;;;;22.42;51.76;101208.03;5041086;28;45396;-52
2022/06/07 09:01:20;;;;;;;;;1.00;1.00;;;;;22.35;51.65;101210.44;5064677;28;45484;-52
2022/06/07 09:03:54;;;;;;;;;1.50;1.00;;;;;22.38;52.04;101212.03;5060152;28;45491;-51
2022/06/07 09:06:23;;;;;;;;;0.25;0.25;;;;;22.44;51.35;101216.88;5058879;28;45359;-53
2022/06/07 09:08:55;;;;;;;;;2.50;2.00;;;;;22.36;50.89;101217.59;5056995;28;45584;-51
2022/06/07 09:14:11;;;;;;;;;0.00;0.00;;;;;22.09;50.44;101215.56;5058678;28;45732;-49
2022/06/07 09:16:43;;;;;;;;;1.75;1.75;;;;;21.96;51.34;101219.41;5057100;28;45490;-53
2022/06/07 09:19:16;;;;;;;;;0.00;0.00;;;;;21.85;50.95;101222.25;5059846;28;45341;-52
2022/06/07 09:21:43;;;;;;;;;0.50;0.00;;;;;21.75;50.96;101226.81;5057366;28;46404;-51
2022/06/07 09:24:12;;;;;;;;;0.00;0.00;;;;;21.65;51.68;101226.75;5058258;28;45463;-52
2022/06/07 09:26:40;;;;;;;;;0.00;0.00;;;;;21.52;51.68;101218.03;5043005;28;45465;-50
2022/06/07 09:29:17;;;;;;;;;0.00;0.00;;;;;21.42;51.78;101215.28;5060830;28;45352;-48
2022/06/07 09:31:44;;;;;;;;;0.00;0.00;;;;;21.34;51.70;101220.53;5066444;28;46087;-52
2022/06/07 09:34:17;;;;;;;;;0.00;0.00;;;;;21.23;51.92;101229.59;5078205;28;45357;-49
2022/06/07 09:36:47;;;;;;;;;0.00;0.00;;;;;21.22;51.60;101230.59;5059297;28;45598;-48
2022/06/07 09:39:20;;;;;;;;;0.00;0.00;;;;;21.26;51.58;101222.06;5040979;28;45609;-48
2022/06/07 09:42:00;;;;;;;;;0.50;0.00;;;;;21.85;52.42;101213.25;5057619;28;45506;-52
2022/06/07 09:44:35;;;;;;;;;1.75;0.00;;;;;22.86;50.55;101216.50;5054617;28;45460;-47
2022/06/07 09:47:05;;;;;;;;;0.00;0.00;;;;;23.72;49.71;101206.41;5057049;28;45426;-48
2022/06/07 09:49:35;;;;;;;;;0.00;0.00;;;;;24.13;48.79;101206.00;5054367;28;45502;-48
2022/06/07 09:52:24;;;;;;;;;0.50;0.50;;;;;24.57;48.05;101206.84;5069619;28;47505;-49
2022/06/07 09:55:16;;;;;;;;;0.50;0.00;;;;;25.97;45.09;101200.34;5059381;28;45470;-47
2022/06/07 09:57:46;;;;;;;;;1.75;0.25;;;;;27.08;45.91;101194.31;5023085;28;45589;-48
2022/06/07 10:00:21;;;;;;;;;0.00;0.00;;;;;28.12;39.81;101201.50;5043713;28;45731;-48
2022/06/07 10:03:14;;;;;;;;;0.00;0.00;;;;;28.60;40.24;101197.63;5060068;28;46274;-50
2022/06/07 10:06:03;;;;;;;;;0.00;0.00;;;;;28.76;39.20;101200.25;5040469;28;45354;-49
2022/06/07 10:08:41;;;;;;;;;1.75;0.00;;;;;28.48;40.80;101202.72;5039496;28;45410;-49
2022/06/07 10:11:10;;;;;;;;;1.50;0.00;;;;;28.02;39.50;101199.00;5058755;28;45415;-48
2022/06/07 10:14:23;;;;;;;;;0.00;0.00;;;;;28.05;40.26;101192.31;5061524;28;45761;-49
2022/06/07 10:17:24;;;;;;;;;0.80;0.80;;;;;28.15;39.66;101179.25;5039699;28;45241;-49
2022/06/07 10:20:44;;;;;;;;;0.00;0.00;;;;;27.76;39.69;101188.38;5023248;28;45459;-48
2022/06/07 10:23:35;;;;;;;;;2.00;0.00;;;;;27.05;39.06;101202.00;5016307;28;45594;-47
2022/06/07 10:26:10;;;;;;;;;0.00;0.00;;;;;26.82;39.73;101204.66;5045914;28;46336;-50
2022/06/07 10:28:42;;;;;;;;;0.00;0.00;;;;;27.13;40.10;101196.53;5052634;28;45410;-52
2022/06/07 10:31:41;;;;;;;;;0.00;0.00;;;;;27.82;39.55;101190.41;5058140;28;45573;-48
2022/06/07 10:34:21;;;;;;;;;0.00;0.00;;;;;28.43;38.21;101191.47;5061366;28;45660;-49
2022/06/07 10:36:52;;;;;;;;;0.00;0.00;;;;;28.99;38.68;101185.63;5043440;28;45563;-50
2022/06/07 10:39:43;;;;;;;;;0.00;0.00;;;;;29.30;36.67;101185.41;5052613;28;45239;-50
2022/06/07 10:42:41;;;;;;;;;1.75;0.00;;;;;29.08;37.90;101175.41;5054844;28;45453;-51
2022/06/07 10:45:28;;;;;;;;;0.00;0.00;;;;;28.63;37.33;101181.72;5030248;28;45363;-50
2022/06/07 10:48:37;;;;;;;;;2.00;2.00;;;;;28.12;35.25;101174.16;5047104;28;46099;-52
2022/06/07 10:54:21;;;;;;;;;0.00;0.00;;;;;27.20;36.97;101186.59;5078796;27;45384;-53
2022/06/07 10:56:56;;;;;;;;;0.00;0.00;;;;;26.86;37.50;101185.00;5062152;28;45699;-51
2022/06/07 10:59:22;;;;;;;;;1.75;0.00;;;;;26.57;37.77;101182.84;5053626;28;47809;-49
2022/06/07 11:02:03;;;;;;;;;0.75;0.75;;;;;26.23;37.35;101181.16;5063277;28;45312;-47
2022/06/07 11:10:21;;;;;;;;;1.50;1.50;;;;;25.31;39.33;101190.13;5027783;28;46581;-49
2022/06/07 11:12:56;;;;;;;;;1.75;0.25;;;;;25.66;39.07;101190.13;5047510;28;45551;-49
2022/06/07 11:15:33;;;;;;;;;1.00;1.00;;;;;26.16;39.23;101180.16;5060269;28;45574;-51
2022/06/07 11:18:06;;;;;;;;;1.00;1.00;;;;;26.66;37.92;101172.75;5058452;28;46402;-51
2022/06/07 11:20:34;;;;;;;;;0.75;0.25;;;;;27.00;34.65;101158.00;5060288;28;46359;-50
2022/06/07 11:23:31;;;;;;;;;1.80;0.00;;;;;27.17;37.17;101180.63;5072765;28;45268;-49
2022/06/07 11:26:06;;;;;;;;;0.00;0.00;;;;;26.88;37.08;101182.97;5050426;28;45293;-51
2022/06/07 11:28:40;;;;;;;;;1.00;1.00;;;;;26.74;36.92;101186.44;5070198;27;45523;-49
2022/06/07 11:31:15;;;;;;;;;0.50;0.50;;;;;26.58;37.84;101188.13;5064103;28;46241;-49
2022/06/07 11:33:53;;;;;;;;;1.00;1.00;;;;;26.37;37.16;101168.72;5064691;28;45399;-49
2022/06/07 11:36:31;;;;;;;;;1.25;0.00;;;;;26.12;38.03;101195.97;5053299;28;45357;-49
2022/06/07 11:39:04;;;;;;;;;0.00;0.00;;;;;25.98;38.17;101188.44;5057446;28;45563;-50
2022/06/07 11:41:39;;;;;;;;;2.00;0.25;;;;;25.85;39.07;101176.19;5060681;28;45395;-48
2022/06/07 11:44:10;;;;;;;;;1.00;0.00;;;;;25.74;39.22;101177.34;5055992;28;45463;-51
2022/06/07 11:46:35;;;;;;;;;0.00;0.00;;;;;25.63;38.25;101174.97;5039031;28;45307;-52
2022/06/07 11:49:22;;;;;;;;;0.00;0.00;;;;;25.61;39.02;101174.25;5060373;28;45606;-49
2022/06/07 11:51:59;;;;;;;;;0.00;0.00;;;;;25.64;38.79;101160.28;5062902;28;47254;-49
2022/06/07 11:54:25;;;;;;;;;0.00;0.00;;;;;25.65;38.53;101175.63;5058927;28;45419;-49
2022/06/07 11:56:52;;;;;;;;;0.75;0.00;;;;;25.57;38.33;101167.44;5061431;28;45586;-51
2022/06/07 11:59:18;;;;;;;;;0.00;0.00;;;;;25.42;37.82;101168.09;5074323;28;45544;-51
2022/06/07 12:01:47;;;;;;;;;0.00;0.00;;;;;25.27;38.67;101159.66;5068214;28;46159;-50